Flight Track Log - Related Links

Times and Time Zones

All times are in EDT time to prevent confusion due to time zone crossing. See the N848TC flight status page for this flight to view local times or setup timezone preferences in your user account.

Time Position Orientation Groundspeed Altitude Reporting Facility
EDT Latitude Longitude Course Direction KTS MPH feet Rate Location/Type
Tue 01:46:33 PM 27.9500 -82.7167 327° Northwest 194 223 1,700  Level Tampa TRACON
Tue 01:47:39 PM 27.9333 -82.8000 257° West 267 307 1,600 955 Descending Tampa TRACON
Tue 01:48:45 PM 27.9333 -82.8833 270° West 272 313 3,800 2,364 Climbing Tampa TRACON
Tue 01:49:51 PM 28.0000 -82.8667 12° North 280 322 6,800 2,667 Climbing Tampa TRACON
Tue 01:50:51 PM 27.9833 -82.7833 103° East 289 333 9,400 2,000 Climbing Tampa TRACON
Tue 01:51:57 PM 27.9167 -82.7167 139° Southeast 314 361 11,000 800 Climbing Tampa TRACON
Tue 01:52:51 PM 27.8500 -82.6333 132° Southeast 393 452 11,000 59 Level Tampa TRACON
Tue 01:53:39 PM 27.8000 -82.5667 130° Southeast 371 427 11,100 389 Climbing Tampa TRACON
Tue 01:54:39 PM 27.7000 -82.5167 156° South 381 438 11,700 450 Climbing Tampa TRACON
Tue 01:55:39 PM 27.6000 -82.5000 172° South 378 435 12,000 143 Climbing Tampa TRACON
Tue 01:56:45 PM 27.4833 -82.5000 180° South 382 440 12,000 893 Level Tampa TRACON
Tue 01:57:40 PM 27.3833 -82.4833 172° South 385 443 13,800 1,098 Climbing Tampa TRACON
Tue 01:59:29 PM 27.1856 -82.4622 175° South 390 449 15,000 426 Climbing Miami Center
Tue 02:00:29 PM 27.0775 -82.4500 174° South 390 449 15,000  Level Miami Center
Tue 02:01:29 PM 26.9800 -82.4358 173° South 379 436 15,000  Level Miami Center
Tue 02:02:29 PM 26.8742 -82.4217 173° South 379 436 15,000  Level Miami Center
Tue 02:03:29 PM 26.7703 -82.4097 174° South 379 436 15,000 -1,100 Level Miami Center
Tue 02:04:29 PM 26.6767 -82.4006 175° South 383 441 12,800 -2,400 Descending Miami Center
Tue 02:05:29 PM 26.5953 -82.3481 150° Southeast 340 391 10,200 -1,800 Descending Miami Center
Tue 02:06:29 PM 26.5272 -82.2728 135° Southeast 335 386 9,200 -1,000 Descending Miami Center
Tue 02:07:29 PM 26.4692 -82.1983 131° Southeast 329 379 8,200 -1,050 Descending Miami Center
Tue 02:08:29 PM 26.4133 -82.1308 133° Southeast 312 359 7,100 -1,750 Descending Miami Center
Tue 02:09:29 PM 26.3425 -82.0697 142° Southeast 298 343 4,700 -2,400 Descending Miami Center
Tue 02:11:00 PM 26.2893 -81.9873 149° Southeast  Level Estimated
Tue 02:18:00 PM 26.1524 -81.7756 66° East  Level Estimated
Tue 02:19:00 PM 26.1524 -81.7756 66° East  Level Estimated
Tue 02:20:00 PM 26.1524 -81.7756 66° East  Level Estimated
Tue 02:21:00 PM 26.1524 -81.7756 66° East  Level Estimated
Tue 02:22:00 PM 26.1524 -81.7756 66° East  Level Estimated
Tue 02:23:00 PM 26.1524 -81.7756 66° East  Level Estimated
Tue 02:24:00 PM 26.1524 -81.7756 66° East  Level Estimated
Tue 02:25:00 PM 26.1524 -81.7756 66° East  Level Estimated
Tue 02:26:00 PM 26.1524 -81.7756 66° East  Level Estimated

Login

Don't have an account? Register now (free) for customized features, flight alerts, and more!